sensor_id;sensor_type;location;lat;lon;timestamp;P1;durP1;ratioP1;P2;durP2;ratioP2
4563;SDS011;2294;51.818;8.484;2022-09-13T00:01:44;8.47;;;6.43;;
4563;SDS011;2294;51.818;8.484;2022-09-13T00:04:11;9.37;;;6.33;;
4563;SDS011;2294;51.818;8.484;2022-09-13T00:06:38;9.40;;;6.77;;
4563;SDS011;2294;51.818;8.484;2022-09-13T00:09:05;9.70;;;6.67;;
4563;SDS011;2294;51.818;8.484;2022-09-13T00:11:32;10.97;;;7.90;;
4563;SDS011;2294;51.818;8.484;2022-09-13T00:13:59;11.83;;;8.60;;
4563;SDS011;2294;51.818;8.484;2022-09-13T00:16:26;13.10;;;8.63;;
4563;SDS011;2294;51.818;8.484;2022-09-13T00:18:55;15.17;;;9.97;;
4563;SDS011;2294;51.818;8.484;2022-09-13T00:21:22;14.50;;;10.60;;
4563;SDS011;2294;51.818;8.484;2022-09-13T00:23:50;12.90;;;9.80;;
4563;SDS011;2294;51.818;8.484;2022-09-13T00:26:20;11.20;;;8.27;;
4563;SDS011;2294;51.818;8.484;2022-09-13T00:28:48;9.23;;;7.50;;
4563;SDS011;2294;51.818;8.484;2022-09-13T00:31:16;9.53;;;7.03;;
4563;SDS011;2294;51.818;8.484;2022-09-13T00:33:44;8.33;;;6.30;;
4563;SDS011;2294;51.818;8.484;2022-09-13T00:36:12;13.70;;;6.13;;
4563;SDS011;2294;51.818;8.484;2022-09-13T00:38:40;12.13;;;6.77;;
4563;SDS011;2294;51.818;8.484;2022-09-13T00:41:09;10.37;;;6.57;;
4563;SDS011;2294;51.818;8.484;2022-09-13T00:43:42;9.03;;;7.00;;
4563;SDS011;2294;51.818;8.484;2022-09-13T00:46:12;19.23;;;7.50;;
4563;SDS011;2294;51.818;8.484;2022-09-13T00:48:43;10.33;;;7.10;;
4563;SDS011;2294;51.818;8.484;2022-09-13T00:51:13;9.23;;;6.67;;
4563;SDS011;2294;51.818;8.484;2022-09-13T00:53:41;9.50;;;6.90;;
4563;SDS011;2294;51.818;8.484;2022-09-13T00:56:12;11.73;;;5.83;;
4563;SDS011;2294;51.818;8.484;2022-09-13T00:58:45;8.10;;;6.50;;
4563;SDS011;2294;51.818;8.484;2022-09-13T01:01:15;10.43;;;7.40;;
4563;SDS011;2294;51.818;8.484;2022-09-13T01:03:43;8.00;;;6.10;;
4563;SDS011;2294;51.818;8.484;2022-09-13T01:06:14;10.40;;;6.50;;
4563;SDS011;2294;51.818;8.484;2022-09-13T01:08:44;8.17;;;6.37;;
4563;SDS011;2294;51.818;8.484;2022-09-13T01:11:15;10.40;;;6.87;;
4563;SDS011;2294;51.818;8.484;2022-09-13T01:13:46;8.60;;;6.97;;
4563;SDS011;2294;51.818;8.484;2022-09-13T01:16:15;8.40;;;6.33;;
4563;SDS011;2294;51.818;8.484;2022-09-13T01:18:42;9.00;;;7.17;;
4563;SDS011;2294;51.818;8.484;2022-09-13T01:24:25;10.00;;;5.87;;
4563;SDS011;2294;51.818;8.484;2022-09-13T01:27:17;10.60;;;6.00;;
4563;SDS011;2294;51.818;8.484;2022-09-13T01:30:04;8.43;;;5.67;;
4563;SDS011;2294;51.818;8.484;2022-09-13T01:32:39;7.80;;;6.00;;
4563;SDS011;2294;51.818;8.484;2022-09-13T01:35:40;7.00;;;6.00;;
4563;SDS011;2294;51.818;8.484;2022-09-13T01:38:19;8.50;;;6.73;;
4563;SDS011;2294;51.818;8.484;2022-09-13T01:41:00;9.03;;;6.57;;
4563;SDS011;2294;51.818;8.484;2022-09-13T01:43:38;8.50;;;6.97;;
4563;SDS011;2294;51.818;8.484;2022-09-13T01:46:18;10.07;;;6.37;;
4563;SDS011;2294;51.818;8.484;2022-09-13T01:48:53;9.20;;;6.80;;
4563;SDS011;2294;51.818;8.484;2022-09-13T01:51:25;8.87;;;6.73;;
4563;SDS011;2294;51.818;8.484;2022-09-13T01:56:42;7.90;;;6.17;;
4563;SDS011;2294;51.818;8.484;2022-09-13T01:59:20;7.87;;;6.07;;
4563;SDS011;2294;51.818;8.484;2022-09-13T02:01:55;11.50;;;6.43;;
4563;SDS011;2294;51.818;8.484;2022-09-13T02:04:26;9.87;;;6.03;;
4563;SDS011;2294;51.818;8.484;2022-09-13T02:07:01;7.03;;;5.53;;
4563;SDS011;2294;51.818;8.484;2022-09-13T02:09:33;10.57;;;5.80;;
4563;SDS011;2294;51.818;8.484;2022-09-13T02:12:06;8.73;;;5.57;;
4563;SDS011;2294;51.818;8.484;2022-09-13T02:14:37;7.63;;;6.47;;
4563;SDS011;2294;51.818;8.484;2022-09-13T02:17:08;9.80;;;7.03;;
4563;SDS011;2294;51.818;8.484;2022-09-13T02:19:39;7.13;;;5.80;;
4563;SDS011;2294;51.818;8.484;2022-09-13T02:22:11;7.37;;;5.80;;
4563;SDS011;2294;51.818;8.484;2022-09-13T02:24:41;6.97;;;5.53;;
4563;SDS011;2294;51.818;8.484;2022-09-13T02:27:11;8.00;;;6.17;;
4563;SDS011;2294;51.818;8.484;2022-09-13T02:29:43;10.30;;;6.70;;
4563;SDS011;2294;51.818;8.484;2022-09-13T02:32:14;6.60;;;5.23;;
4563;SDS011;2294;51.818;8.484;2022-09-13T02:34:47;9.27;;;6.37;;
4563;SDS011;2294;51.818;8.484;2022-09-13T02:37:18;10.03;;;5.80;;
4563;SDS011;2294;51.818;8.484;2022-09-13T02:39:46;7.40;;;5.77;;
4563;SDS011;2294;51.818;8.484;2022-09-13T02:42:20;8.63;;;5.80;;
4563;SDS011;2294;51.818;8.484;2022-09-13T02:44:49;8.37;;;6.57;;
4563;SDS011;2294;51.818;8.484;2022-09-13T02:47:24;6.87;;;5.60;;
4563;SDS011;2294;51.818;8.484;2022-09-13T02:50:03;8.43;;;5.63;;
4563;SDS011;2294;51.818;8.484;2022-09-13T02:52:36;7.77;;;6.13;;
4563;SDS011;2294;51.818;8.484;2022-09-13T02:55:15;8.03;;;6.23;;
4563;SDS011;2294;51.818;8.484;2022-09-13T02:57:49;10.90;;;5.97;;
4563;SDS011;2294;51.818;8.484;2022-09-13T03:00:23;9.03;;;6.10;;
4563;SDS011;2294;51.818;8.484;2022-09-13T03:02:52;8.80;;;6.67;;
4563;SDS011;2294;51.818;8.484;2022-09-13T03:05:21;9.00;;;6.67;;
4563;SDS011;2294;51.818;8.484;2022-09-13T03:07:48;9.70;;;7.17;;
4563;SDS011;2294;51.818;8.484;2022-09-13T03:10:17;7.80;;;5.77;;
4563;SDS011;2294;51.818;8.484;2022-09-13T03:12:54;10.30;;;6.27;;
4563;SDS011;2294;51.818;8.484;2022-09-13T03:15:49;8.90;;;6.50;;
4563;SDS011;2294;51.818;8.484;2022-09-13T03:21:17;10.73;;;6.53;;
4563;SDS011;2294;51.818;8.484;2022-09-13T03:24:02;12.30;;;7.77;;
4563;SDS011;2294;51.818;8.484;2022-09-13T03:26:41;14.70;;;6.93;;
4563;SDS011;2294;51.818;8.484;2022-09-13T03:32:08;9.50;;;6.90;;
4563;SDS011;2294;51.818;8.484;2022-09-13T03:34:46;9.83;;;6.27;;
4563;SDS011;2294;51.818;8.484;2022-09-13T03:37:21;11.30;;;8.63;;
4563;SDS011;2294;51.818;8.484;2022-09-13T03:39:53;9.70;;;7.50;;
4563;SDS011;2294;51.818;8.484;2022-09-13T03:42:26;13.60;;;7.80;;
4563;SDS011;2294;51.818;8.484;2022-09-13T03:44:57;9.83;;;6.83;;
4563;SDS011;2294;51.818;8.484;2022-09-13T03:47:27;13.23;;;7.37;;
4563;SDS011;2294;51.818;8.484;2022-09-13T03:49:59;10.63;;;7.77;;
4563;SDS011;2294;51.818;8.484;2022-09-13T03:52:27;15.47;;;8.17;;
4563;SDS011;2294;51.818;8.484;2022-09-13T03:54:54;10.93;;;8.37;;
4563;SDS011;2294;51.818;8.484;2022-09-13T03:57:23;10.27;;;7.67;;
4563;SDS011;2294;51.818;8.484;2022-09-13T03:59:50;14.63;;;9.20;;
4563;SDS011;2294;51.818;8.484;2022-09-13T04:02:18;12.27;;;8.70;;
4563;SDS011;2294;51.818;8.484;2022-09-13T04:04:47;8.57;;;7.67;;
4563;SDS011;2294;51.818;8.484;2022-09-13T04:07:16;12.80;;;7.97;;
4563;SDS011;2294;51.818;8.484;2022-09-13T04:09:45;11.37;;;8.50;;
4563;SDS011;2294;51.818;8.484;2022-09-13T04:12:11;10.17;;;7.97;;
4563;SDS011;2294;51.818;8.484;2022-09-13T04:14:39;13.00;;;8.13;;
4563;SDS011;2294;51.818;8.484;2022-09-13T04:17:07;12.10;;;8.00;;
4563;SDS011;2294;51.818;8.484;2022-09-13T04:19:34;11.20;;;8.27;;
4563;SDS011;2294;51.818;8.484;2022-09-13T04:22:01;11.50;;;8.47;;
4563;SDS011;2294;51.818;8.484;2022-09-13T04:24:29;10.40;;;7.97;;
4563;SDS011;2294;51.818;8.484;2022-09-13T04:26:56;12.70;;;8.60;;
4563;SDS011;2294;51.818;8.484;2022-09-13T04:29:24;10.87;;;8.10;;
4563;SDS011;2294;51.818;8.484;2022-09-13T04:31:52;11.13;;;8.40;;
4563;SDS011;2294;51.818;8.484;2022-09-13T04:34:20;15.13;;;9.33;;
4563;SDS011;2294;51.818;8.484;2022-09-13T04:36:47;13.13;;;8.37;;
4563;SDS011;2294;51.818;8.484;2022-09-13T04:39:15;13.03;;;8.87;;
4563;SDS011;2294;51.818;8.484;2022-09-13T04:41:43;10.40;;;8.50;;
4563;SDS011;2294;51.818;8.484;2022-09-13T04:44:12;11.60;;;8.13;;
4563;SDS011;2294;51.818;8.484;2022-09-13T04:46:40;23.80;;;9.80;;
4563;SDS011;2294;51.818;8.484;2022-09-13T04:49:08;12.60;;;8.50;;
4563;SDS011;2294;51.818;8.484;2022-09-13T04:51:35;18.83;;;8.07;;
4563;SDS011;2294;51.818;8.484;2022-09-13T04:54:02;16.23;;;9.00;;
4563;SDS011;2294;51.818;8.484;2022-09-13T04:56:29;13.00;;;8.63;;
4563;SDS011;2294;51.818;8.484;2022-09-13T04:58:58;19.67;;;8.50;;
4563;SDS011;2294;51.818;8.484;2022-09-13T05:01:24;11.20;;;8.07;;
4563;SDS011;2294;51.818;8.484;2022-09-13T05:03:51;19.13;;;7.73;;
4563;SDS011;2294;51.818;8.484;2022-09-13T05:06:19;19.87;;;9.67;;
4563;SDS011;2294;51.818;8.484;2022-09-13T05:08:48;11.90;;;8.90;;
4563;SDS011;2294;51.818;8.484;2022-09-13T05:11:19;19.23;;;9.30;;
4563;SDS011;2294;51.818;8.484;2022-09-13T05:13:47;12.57;;;9.80;;
4563;SDS011;2294;51.818;8.484;2022-09-13T05:16:20;12.97;;;9.23;;
4563;SDS011;2294;51.818;8.484;2022-09-13T05:18:47;19.23;;;9.17;;
4563;SDS011;2294;51.818;8.484;2022-09-13T05:21:15;13.30;;;9.30;;
4563;SDS011;2294;51.818;8.484;2022-09-13T05:23:42;14.63;;;9.90;;
4563;SDS011;2294;51.818;8.484;2022-09-13T05:26:10;14.60;;;9.17;;
4563;SDS011;2294;51.818;8.484;2022-09-13T05:28:36;14.87;;;9.73;;
4563;SDS011;2294;51.818;8.484;2022-09-13T05:31:04;14.70;;;9.80;;
4563;SDS011;2294;51.818;8.484;2022-09-13T05:33:34;14.43;;;11.00;;
4563;SDS011;2294;51.818;8.484;2022-09-13T05:36:02;14.73;;;9.13;;
4563;SDS011;2294;51.818;8.484;2022-09-13T05:38:30;10.20;;;7.77;;
4563;SDS011;2294;51.818;8.484;2022-09-13T05:40:58;12.33;;;9.10;;
4563;SDS011;2294;51.818;8.484;2022-09-13T05:43:27;14.77;;;8.77;;
4563;SDS011;2294;51.818;8.484;2022-09-13T05:45:59;15.70;;;8.50;;
4563;SDS011;2294;51.818;8.484;2022-09-13T05:48:27;23.30;;;9.60;;
4563;SDS011;2294;51.818;8.484;2022-09-13T05:50:55;11.57;;;8.70;;
4563;SDS011;2294;51.818;8.484;2022-09-13T05:53:22;16.73;;;9.20;;
4563;SDS011;2294;51.818;8.484;2022-09-13T05:55:49;12.70;;;9.17;;
4563;SDS011;2294;51.818;8.484;2022-09-13T05:58:16;14.00;;;8.53;;
4563;SDS011;2294;51.818;8.484;2022-09-13T06:00:43;16.90;;;7.83;;
4563;SDS011;2294;51.818;8.484;2022-09-13T06:03:09;21.03;;;8.93;;
4563;SDS011;2294;51.818;8.484;2022-09-13T06:05:36;13.50;;;8.87;;
4563;SDS011;2294;51.818;8.484;2022-09-13T06:08:05;9.83;;;8.00;;
4563;SDS011;2294;51.818;8.484;2022-09-13T06:10:32;13.57;;;9.10;;
4563;SDS011;2294;51.818;8.484;2022-09-13T06:12:59;13.93;;;8.87;;
4563;SDS011;2294;51.818;8.484;2022-09-13T06:15:26;14.70;;;9.10;;
4563;SDS011;2294;51.818;8.484;2022-09-13T06:17:52;18.67;;;9.73;;
4563;SDS011;2294;51.818;8.484;2022-09-13T06:20:19;12.30;;;9.10;;
4563;SDS011;2294;51.818;8.484;2022-09-13T06:22:47;11.70;;;8.13;;
4563;SDS011;2294;51.818;8.484;2022-09-13T06:25:15;12.93;;;8.67;;
4563;SDS011;2294;51.818;8.484;2022-09-13T06:27:42;17.50;;;9.83;;
4563;SDS011;2294;51.818;8.484;2022-09-13T06:30:09;12.63;;;9.83;;
4563;SDS011;2294;51.818;8.484;2022-09-13T06:32:37;12.50;;;9.63;;
4563;SDS011;2294;51.818;8.484;2022-09-13T06:35:04;14.00;;;9.07;;
4563;SDS011;2294;51.818;8.484;2022-09-13T06:37:32;15.90;;;8.87;;
4563;SDS011;2294;51.818;8.484;2022-09-13T06:39:59;14.37;;;9.80;;
4563;SDS011;2294;51.818;8.484;2022-09-13T06:42:27;20.43;;;9.80;;
4563;SDS011;2294;51.818;8.484;2022-09-13T06:44:54;22.40;;;10.20;;
4563;SDS011;2294;51.818;8.484;2022-09-13T06:47:21;13.90;;;8.53;;
4563;SDS011;2294;51.818;8.484;2022-09-13T06:49:48;16.63;;;9.57;;
4563;SDS011;2294;51.818;8.484;2022-09-13T06:52:15;12.70;;;8.20;;
4563;SDS011;2294;51.818;8.484;2022-09-13T06:54:42;18.57;;;8.87;;
4563;SDS011;2294;51.818;8.484;2022-09-13T06:57:08;18.70;;;9.43;;
4563;SDS011;2294;51.818;8.484;2022-09-13T06:59:37;13.17;;;9.70;;
4563;SDS011;2294;51.818;8.484;2022-09-13T07:02:04;17.87;;;10.03;;
4563;SDS011;2294;51.818;8.484;2022-09-13T07:04:30;12.87;;;8.73;;
4563;SDS011;2294;51.818;8.484;2022-09-13T07:06:58;10.43;;;8.40;;
4563;SDS011;2294;51.818;8.484;2022-09-13T07:09:25;11.53;;;8.23;;
4563;SDS011;2294;51.818;8.484;2022-09-13T07:11:52;14.50;;;9.27;;
4563;SDS011;2294;51.818;8.484;2022-09-13T07:14:21;13.33;;;9.37;;
4563;SDS011;2294;51.818;8.484;2022-09-13T07:16:51;14.80;;;9.30;;
4563;SDS011;2294;51.818;8.484;2022-09-13T07:19:19;19.03;;;9.50;;
4563;SDS011;2294;51.818;8.484;2022-09-13T07:21:47;14.83;;;8.30;;
4563;SDS011;2294;51.818;8.484;2022-09-13T07:24:15;9.67;;;7.60;;
4563;SDS011;2294;51.818;8.484;2022-09-13T07:26:42;18.70;;;8.87;;
4563;SDS011;2294;51.818;8.484;2022-09-13T07:29:11;17.20;;;8.30;;
4563;SDS011;2294;51.818;8.484;2022-09-13T07:31:40;13.37;;;7.97;;
4563;SDS011;2294;51.818;8.484;2022-09-13T07:34:12;14.60;;;8.00;;
4563;SDS011;2294;51.818;8.484;2022-09-13T07:36:40;15.03;;;7.90;;
4563;SDS011;2294;51.818;8.484;2022-09-13T07:39:07;12.70;;;7.97;;
4563;SDS011;2294;51.818;8.484;2022-09-13T07:41:34;18.50;;;8.00;;
4563;SDS011;2294;51.818;8.484;2022-09-13T07:44:02;14.17;;;7.37;;
4563;SDS011;2294;51.818;8.484;2022-09-13T07:46:31;10.10;;;6.97;;
4563;SDS011;2294;51.818;8.484;2022-09-13T07:49:00;9.30;;;7.20;;
4563;SDS011;2294;51.818;8.484;2022-09-13T07:51:29;8.77;;;6.50;;
4563;SDS011;2294;51.818;8.484;2022-09-13T07:53:58;13.03;;;7.27;;
4563;SDS011;2294;51.818;8.484;2022-09-13T07:56:26;10.83;;;7.23;;
4563;SDS011;2294;51.818;8.484;2022-09-13T07:58:54;9.10;;;6.77;;
4563;SDS011;2294;51.818;8.484;2022-09-13T08:01:25;10.17;;;6.50;;
4563;SDS011;2294;51.818;8.484;2022-09-13T08:03:53;11.70;;;5.80;;
4563;SDS011;2294;51.818;8.484;2022-09-13T08:06:22;7.00;;;4.90;;
4563;SDS011;2294;51.818;8.484;2022-09-13T08:08:51;6.43;;;5.10;;
4563;SDS011;2294;51.818;8.484;2022-09-13T08:11:19;6.77;;;4.97;;
4563;SDS011;2294;51.818;8.484;2022-09-13T08:13:47;6.93;;;5.63;;
4563;SDS011;2294;51.818;8.484;2022-09-13T08:16:16;5.67;;;4.33;;
4563;SDS011;2294;51.818;8.484;2022-09-13T08:18:44;6.13;;;4.90;;
4563;SDS011;2294;51.818;8.484;2022-09-13T08:21:12;9.10;;;5.37;;
4563;SDS011;2294;51.818;8.484;2022-09-13T08:23:39;7.13;;;4.87;;
4563;SDS011;2294;51.818;8.484;2022-09-13T08:26:08;12.97;;;5.37;;
4563;SDS011;2294;51.818;8.484;2022-09-13T08:28:36;8.77;;;4.77;;
4563;SDS011;2294;51.818;8.484;2022-09-13T08:31:04;11.10;;;5.40;;
4563;SDS011;2294;51.818;8.484;2022-09-13T08:33:32;8.03;;;5.30;;
4563;SDS011;2294;51.818;8.484;2022-09-13T08:35:59;9.60;;;5.77;;
4563;SDS011;2294;51.818;8.484;2022-09-13T08:38:27;6.30;;;4.60;;
4563;SDS011;2294;51.818;8.484;2022-09-13T08:40:55;7.57;;;4.77;;
4563;SDS011;2294;51.818;8.484;2022-09-13T08:43:28;7.80;;;4.83;;
4563;SDS011;2294;51.818;8.484;2022-09-13T08:46:04;12.30;;;6.60;;
4563;SDS011;2294;51.818;8.484;2022-09-13T08:48:35;7.13;;;5.10;;
4563;SDS011;2294;51.818;8.484;2022-09-13T08:51:21;15.87;;;5.00;;
4563;SDS011;2294;51.818;8.484;2022-09-13T08:53:53;9.40;;;5.50;;
4563;SDS011;2294;51.818;8.484;2022-09-13T08:56:22;6.43;;;4.60;;
4563;SDS011;2294;51.818;8.484;2022-09-13T08:58:58;17.87;;;6.83;;
4563;SDS011;2294;51.818;8.484;2022-09-13T09:01:37;9.30;;;5.80;;
4563;SDS011;2294;51.818;8.484;2022-09-13T09:04:14;7.83;;;5.20;;
4563;SDS011;2294;51.818;8.484;2022-09-13T09:06:59;12.77;;;6.83;;
4563;SDS011;2294;51.818;8.484;2022-09-13T09:09:30;17.37;;;9.70;;
4563;SDS011;2294;51.818;8.484;2022-09-13T09:12:03;20.40;;;9.13;;
4563;SDS011;2294;51.818;8.484;2022-09-13T09:14:40;12.07;;;7.30;;
4563;SDS011;2294;51.818;8.484;2022-09-13T09:17:12;10.23;;;7.27;;
4563;SDS011;2294;51.818;8.484;2022-09-13T09:19:44;9.10;;;6.50;;
4563;SDS011;2294;51.818;8.484;2022-09-13T09:22:15;19.30;;;6.20;;
4563;SDS011;2294;51.818;8.484;2022-09-13T09:24:46;13.30;;;7.20;;
4563;SDS011;2294;51.818;8.484;2022-09-13T09:27:17;16.70;;;7.30;;
4563;SDS011;2294;51.818;8.484;2022-09-13T09:29:47;10.90;;;6.27;;
4563;SDS011;2294;51.818;8.484;2022-09-13T09:32:21;13.80;;;7.67;;
4563;SDS011;2294;51.818;8.484;2022-09-13T09:35:07;12.30;;;9.37;;
4563;SDS011;2294;51.818;8.484;2022-09-13T09:37:40;11.13;;;7.50;;
4563;SDS011;2294;51.818;8.484;2022-09-13T09:40:12;15.27;;;9.53;;
4563;SDS011;2294;51.818;8.484;2022-09-13T09:42:42;15.30;;;10.07;;
4563;SDS011;2294;51.818;8.484;2022-09-13T09:45:24;16.67;;;10.30;;
4563;SDS011;2294;51.818;8.484;2022-09-13T09:47:52;14.50;;;10.23;;
4563;SDS011;2294;51.818;8.484;2022-09-13T09:50:21;19.40;;;11.43;;
4563;SDS011;2294;51.818;8.484;2022-09-13T09:52:51;22.57;;;11.00;;
4563;SDS011;2294;51.818;8.484;2022-09-13T09:55:25;22.93;;;13.40;;
4563;SDS011;2294;51.818;8.484;2022-09-13T09:57:56;21.13;;;10.43;;
4563;SDS011;2294;51.818;8.484;2022-09-13T10:00:26;28.73;;;12.57;;
4563;SDS011;2294;51.818;8.484;2022-09-13T10:02:56;22.03;;;12.97;;
4563;SDS011;2294;51.818;8.484;2022-09-13T10:05:25;17.90;;;10.60;;
4563;SDS011;2294;51.818;8.484;2022-09-13T10:07:53;19.77;;;9.97;;
4563;SDS011;2294;51.818;8.484;2022-09-13T10:10:24;19.43;;;11.40;;
4563;SDS011;2294;51.818;8.484;2022-09-13T10:13:01;21.37;;;11.80;;
4563;SDS011;2294;51.818;8.484;2022-09-13T10:15:33;21.90;;;13.13;;
4563;SDS011;2294;51.818;8.484;2022-09-13T10:18:01;16.97;;;10.63;;
4563;SDS011;2294;51.818;8.484;2022-09-13T10:20:39;18.40;;;10.90;;
4563;SDS011;2294;51.818;8.484;2022-09-13T10:23:11;18.90;;;10.80;;
4563;SDS011;2294;51.818;8.484;2022-09-13T10:25:44;24.13;;;12.63;;
4563;SDS011;2294;51.818;8.484;2022-09-13T10:28:23;17.93;;;10.90;;
4563;SDS011;2294;51.818;8.484;2022-09-13T10:30:53;18.17;;;12.23;;
4563;SDS011;2294;51.818;8.484;2022-09-13T10:33:26;17.40;;;10.70;;
4563;SDS011;2294;51.818;8.484;2022-09-13T10:35:56;18.47;;;9.90;;
4563;SDS011;2294;51.818;8.484;2022-09-13T10:38:28;14.57;;;10.27;;
4563;SDS011;2294;51.818;8.484;2022-09-13T10:40:58;17.10;;;11.20;;
4563;SDS011;2294;51.818;8.484;2022-09-13T10:43:28;16.73;;;10.57;;
4563;SDS011;2294;51.818;8.484;2022-09-13T10:45:58;19.40;;;11.20;;
4563;SDS011;2294;51.818;8.484;2022-09-13T10:48:29;15.13;;;10.33;;
4563;SDS011;2294;51.818;8.484;2022-09-13T10:51:00;15.83;;;9.33;;
4563;SDS011;2294;51.818;8.484;2022-09-13T10:53:32;13.67;;;9.87;;
4563;SDS011;2294;51.818;8.484;2022-09-13T10:56:01;21.10;;;11.03;;
4563;SDS011;2294;51.818;8.484;2022-09-13T10:58:28;17.50;;;9.60;;
4563;SDS011;2294;51.818;8.484;2022-09-13T11:07:02;12.30;;;7.60;;
4563;SDS011;2294;51.818;8.484;2022-09-13T11:09:42;11.83;;;7.10;;
4563;SDS011;2294;51.818;8.484;2022-09-13T11:12:18;9.80;;;5.60;;
4563;SDS011;2294;51.818;8.484;2022-09-13T11:14:54;12.07;;;6.17;;
4563;SDS011;2294;51.818;8.484;2022-09-13T11:17:37;9.23;;;5.30;;
4563;SDS011;2294;51.818;8.484;2022-09-13T11:20:25;8.23;;;5.90;;
4563;SDS011;2294;51.818;8.484;2022-09-13T11:23:14;6.00;;;4.63;;
4563;SDS011;2294;51.818;8.484;2022-09-13T11:26:01;8.30;;;5.57;;
4563;SDS011;2294;51.818;8.484;2022-09-13T11:28:42;8.50;;;3.80;;
4563;SDS011;2294;51.818;8.484;2022-09-13T11:31:32;9.00;;;4.07;;
4563;SDS011;2294;51.818;8.484;2022-09-13T11:34:20;7.13;;;4.60;;
4563;SDS011;2294;51.818;8.484;2022-09-13T11:37:05;7.93;;;4.80;;
4563;SDS011;2294;51.818;8.484;2022-09-13T11:39:45;14.20;;;5.43;;
4563;SDS011;2294;51.818;8.484;2022-09-13T11:42:22;8.50;;;4.67;;
4563;SDS011;2294;51.818;8.484;2022-09-13T11:47:47;14.00;;;5.60;;
4563;SDS011;2294;51.818;8.484;2022-09-13T11:50:51;10.80;;;5.07;;
4563;SDS011;2294;51.818;8.484;2022-09-13T11:53:36;11.80;;;6.17;;
4563;SDS011;2294;51.818;8.484;2022-09-13T11:56:23;10.90;;;5.90;;
4563;SDS011;2294;51.818;8.484;2022-09-13T11:58:57;8.10;;;5.17;;
4563;SDS011;2294;51.818;8.484;2022-09-13T12:01:35;10.40;;;5.40;;
4563;SDS011;2294;51.818;8.484;2022-09-13T12:04:08;12.00;;;5.63;;
4563;SDS011;2294;51.818;8.484;2022-09-13T12:06:42;11.97;;;5.47;;
4563;SDS011;2294;51.818;8.484;2022-09-13T12:09:14;8.80;;;4.40;;
4563;SDS011;2294;51.818;8.484;2022-09-13T12:11:47;8.83;;;5.10;;
4563;SDS011;2294;51.818;8.484;2022-09-13T12:14:18;7.93;;;5.50;;
4563;SDS011;2294;51.818;8.484;2022-09-13T12:16:49;12.07;;;5.17;;
4563;SDS011;2294;51.818;8.484;2022-09-13T12:19:20;7.33;;;5.13;;
4563;SDS011;2294;51.818;8.484;2022-09-13T12:21:51;9.20;;;5.00;;
4563;SDS011;2294;51.818;8.484;2022-09-13T12:24:24;8.20;;;4.83;;
4563;SDS011;2294;51.818;8.484;2022-09-13T12:26:58;6.43;;;4.37;;
4563;SDS011;2294;51.818;8.484;2022-09-13T12:29:30;8.70;;;4.07;;
4563;SDS011;2294;51.818;8.484;2022-09-13T12:32:03;6.03;;;3.60;;
4563;SDS011;2294;51.818;8.484;2022-09-13T12:34:32;9.33;;;4.17;;
4563;SDS011;2294;51.818;8.484;2022-09-13T12:37:19;5.33;;;4.10;;
4563;SDS011;2294;51.818;8.484;2022-09-13T12:39:59;6.60;;;4.40;;
4563;SDS011;2294;51.818;8.484;2022-09-13T12:48:47;6.57;;;4.20;;
4563;SDS011;2294;51.818;8.484;2022-09-13T12:51:35;6.27;;;4.20;;
4563;SDS011;2294;51.818;8.484;2022-09-13T12:54:22;7.27;;;3.40;;
4563;SDS011;2294;51.818;8.484;2022-09-13T12:57:15;10.10;;;4.30;;
4563;SDS011;2294;51.818;8.484;2022-09-13T13:00:01;4.90;;;3.50;;
4563;SDS011;2294;51.818;8.484;2022-09-13T13:02:39;5.40;;;3.37;;
4563;SDS011;2294;51.818;8.484;2022-09-13T13:05:18;10.13;;;5.93;;
4563;SDS011;2294;51.818;8.484;2022-09-13T13:07:50;7.67;;;3.60;;
4563;SDS011;2294;51.818;8.484;2022-09-13T13:10:27;4.57;;;4.07;;
4563;SDS011;2294;51.818;8.484;2022-09-13T13:13:07;5.90;;;3.80;;
4563;SDS011;2294;51.818;8.484;2022-09-13T13:15:56;6.20;;;5.03;;
4563;SDS011;2294;51.818;8.484;2022-09-13T13:18:42;5.20;;;4.33;;
4563;SDS011;2294;51.818;8.484;2022-09-13T13:21:23;11.10;;;4.97;;
4563;SDS011;2294;51.818;8.484;2022-09-13T13:33:18;6.70;;;4.50;;
4563;SDS011;2294;51.818;8.484;2022-09-13T13:35:47;7.13;;;4.50;;
4563;SDS011;2294;51.818;8.484;2022-09-13T13:38:16;8.27;;;5.93;;
4563;SDS011;2294;51.818;8.484;2022-09-13T13:41:38;7.90;;;4.30;;
4563;SDS011;2294;51.818;8.484;2022-09-13T13:50:19;13.73;;;5.97;;
4563;SDS011;2294;51.818;8.484;2022-09-13T13:52:51;12.53;;;4.67;;
4563;SDS011;2294;51.818;8.484;2022-09-13T13:55:29;8.13;;;4.67;;
4563;SDS011;2294;51.818;8.484;2022-09-13T13:58:28;7.30;;;4.53;;
4563;SDS011;2294;51.818;8.484;2022-09-13T14:00:59;6.33;;;4.80;;
4563;SDS011;2294;51.818;8.484;2022-09-13T14:03:33;15.40;;;6.23;;
4563;SDS011;2294;51.818;8.484;2022-09-13T14:06:16;7.20;;;5.60;;
4563;SDS011;2294;51.818;8.484;2022-09-13T14:08:53;6.43;;;5.07;;
4563;SDS011;2294;51.818;8.484;2022-09-13T14:11:44;9.70;;;5.73;;
4563;SDS011;2294;51.818;8.484;2022-09-13T14:17:25;7.70;;;5.60;;
4563;SDS011;2294;51.818;8.484;2022-09-13T14:20:14;8.53;;;5.80;;
4563;SDS011;2294;51.818;8.484;2022-09-13T14:22:43;8.40;;;5.90;;
4563;SDS011;2294;51.818;8.484;2022-09-13T14:25:15;16.10;;;5.37;;
4563;SDS011;2294;51.818;8.484;2022-09-13T14:27:49;8.50;;;6.23;;
4563;SDS011;2294;51.818;8.484;2022-09-13T14:30:18;10.27;;;5.90;;
4563;SDS011;2294;51.818;8.484;2022-09-13T14:32:48;8.10;;;4.40;;
4563;SDS011;2294;51.818;8.484;2022-09-13T14:35:27;11.23;;;6.37;;
4563;SDS011;2294;51.818;8.484;2022-09-13T14:37:58;8.10;;;6.37;;
4563;SDS011;2294;51.818;8.484;2022-09-13T14:40:36;8.83;;;5.10;;
4563;SDS011;2294;51.818;8.484;2022-09-13T14:43:12;7.50;;;5.70;;
4563;SDS011;2294;51.818;8.484;2022-09-13T14:45:40;13.57;;;6.10;;
4563;SDS011;2294;51.818;8.484;2022-09-13T14:48:11;8.87;;;5.70;;
4563;SDS011;2294;51.818;8.484;2022-09-13T14:50:47;9.23;;;4.93;;
4563;SDS011;2294;51.818;8.484;2022-09-13T14:53:17;8.07;;;5.17;;
4563;SDS011;2294;51.818;8.484;2022-09-13T14:55:48;12.70;;;5.47;;
4563;SDS011;2294;51.818;8.484;2022-09-13T14:58:19;9.33;;;6.70;;
4563;SDS011;2294;51.818;8.484;2022-09-13T15:00:51;11.00;;;7.03;;
4563;SDS011;2294;51.818;8.484;2022-09-13T15:03:22;8.30;;;5.53;;
4563;SDS011;2294;51.818;8.484;2022-09-13T15:05:52;7.77;;;6.50;;
4563;SDS011;2294;51.818;8.484;2022-09-13T15:08:24;9.07;;;4.70;;
4563;SDS011;2294;51.818;8.484;2022-09-13T15:10:55;7.60;;;4.73;;
4563;SDS011;2294;51.818;8.484;2022-09-13T15:13:22;10.27;;;5.83;;
4563;SDS011;2294;51.818;8.484;2022-09-13T15:15:49;6.93;;;5.30;;
4563;SDS011;2294;51.818;8.484;2022-09-13T15:18:23;9.30;;;5.53;;
4563;SDS011;2294;51.818;8.484;2022-09-13T15:20:53;7.70;;;5.07;;
4563;SDS011;2294;51.818;8.484;2022-09-13T15:23:22;5.53;;;4.20;;
4563;SDS011;2294;51.818;8.484;2022-09-13T15:25:52;6.60;;;4.70;;
4563;SDS011;2294;51.818;8.484;2022-09-13T15:28:23;5.07;;;4.57;;
4563;SDS011;2294;51.818;8.484;2022-09-13T15:30:51;6.73;;;5.03;;
4563;SDS011;2294;51.818;8.484;2022-09-13T15:33:23;6.47;;;4.13;;
4563;SDS011;2294;51.818;8.484;2022-09-13T15:36:05;6.70;;;4.30;;
4563;SDS011;2294;51.818;8.484;2022-09-13T15:38:54;7.63;;;4.30;;
4563;SDS011;2294;51.818;8.484;2022-09-13T15:41:29;6.13;;;4.87;;
4563;SDS011;2294;51.818;8.484;2022-09-13T15:43:58;6.93;;;4.40;;
4563;SDS011;2294;51.818;8.484;2022-09-13T15:46:26;7.53;;;4.27;;
4563;SDS011;2294;51.818;8.484;2022-09-13T15:48:54;7.53;;;4.97;;
4563;SDS011;2294;51.818;8.484;2022-09-13T15:51:25;9.07;;;4.80;;
4563;SDS011;2294;51.818;8.484;2022-09-13T15:53:52;9.40;;;4.47;;
4563;SDS011;2294;51.818;8.484;2022-09-13T15:56:20;7.17;;;4.63;;
4563;SDS011;2294;51.818;8.484;2022-09-13T16:02:15;5.70;;;3.80;;
4563;SDS011;2294;51.818;8.484;2022-09-13T16:04:44;5.47;;;3.10;;
4563;SDS011;2294;51.818;8.484;2022-09-13T16:07:13;6.07;;;3.60;;
4563;SDS011;2294;51.818;8.484;2022-09-13T16:09:40;7.27;;;3.60;;
4563;SDS011;2294;51.818;8.484;2022-09-13T16:12:07;7.50;;;3.40;;
4563;SDS011;2294;51.818;8.484;2022-09-13T16:14:34;9.50;;;3.70;;
4563;SDS011;2294;51.818;8.484;2022-09-13T16:17:02;4.23;;;3.03;;
4563;SDS011;2294;51.818;8.484;2022-09-13T16:19:31;5.67;;;3.07;;
4563;SDS011;2294;51.818;8.484;2022-09-13T16:21:59;6.20;;;2.90;;
4563;SDS011;2294;51.818;8.484;2022-09-13T16:24:27;9.00;;;3.00;;
4563;SDS011;2294;51.818;8.484;2022-09-13T16:26:54;3.70;;;3.10;;